Time;durP1;ratioP1;P1;durP2;ratioP2;P2;SDS_P1;SDS_P2;PMS_P1;PMS_P2;Temp;Humidity;BMP_temperature;BMP_pressure;BME280_temperature;BME280_humidity;BME280_pressure;Samples;Min_cycle;Max_cycle;Signal;HPM_P1;HPM_P2
2024/01/20 00:01:53;;;;;;;12.80;9.98;;;0.80;99.90;;;;;;5056922;28;20208;-80
2024/01/20 00:04:21;;;;;;;15.65;10.35;;;0.70;99.90;;;;;;5055398;28;20244;-80
2024/01/20 00:06:50;;;;;;;12.30;9.90;;;0.60;99.90;;;;;;5049056;28;20299;-78
2024/01/20 00:09:20;;;;;;;13.43;9.90;;;0.50;99.90;;;;;;5051308;28;20198;-80
2024/01/20 00:11:53;;;;;;;13.05;9.23;;;0.50;99.90;;;;;;5049996;28;20239;-77
2024/01/20 00:14:22;;;;;;;12.43;9.63;;;0.60;99.90;;;;;;5044488;28;20190;-81
2024/01/20 00:16:50;;;;;;;15.23;11.52;;;0.50;99.90;;;;;;5051884;28;20214;-80
2024/01/20 00:19:19;;;;;;;13.60;10.40;;;0.40;99.90;;;;;;5047136;28;20205;-74
2024/01/20 00:21:48;;;;;;;12.35;10.65;;;0.50;99.90;;;;;;5040168;28;20212;-76
2024/01/20 00:24:16;;;;;;;11.65;9.70;;;0.60;99.90;;;;;;5043477;28;20197;-78
2024/01/20 00:26:46;;;;;;;13.75;10.45;;;0.70;99.90;;;;;;5042667;28;20229;-76
2024/01/20 00:29:14;;;;;;;16.23;11.13;;;0.30;99.90;;;;;;5051478;28;20687;-78
2024/01/20 00:31:43;;;;;;;17.98;11.35;;;0.20;99.90;;;;;;5042141;28;20965;-77
2024/01/20 00:34:11;;;;;;;14.25;10.45;;;0.20;99.90;;;;;;5052802;28;20205;-78
2024/01/20 00:36:40;;;;;;;13.23;10.05;;;0.20;99.90;;;;;;5053312;28;20213;-76
2024/01/20 00:39:08;;;;;;;15.60;10.52;;;0.20;99.90;;;;;;5052483;28;20189;-79
2024/01/20 00:41:36;;;;;;;20.08;11.38;;;0.40;99.90;;;;;;5055153;28;20194;-77
2024/01/20 00:44:06;;;;;;;14.05;11.40;;;0.60;99.90;;;;;;5052661;28;20197;-76
2024/01/20 00:46:34;;;;;;;12.48;10.48;;;0.60;99.90;;;;;;5041736;28;20229;-80
2024/01/20 00:49:03;;;;;;;15.50;10.10;;;0.50;99.90;;;;;;5038520;28;20550;-78
2024/01/20 00:51:31;;;;;;;14.68;10.30;;;0.60;99.90;;;;;;5041758;28;20202;-75
2024/01/20 00:53:59;;;;;;;14.73;10.57;;;0.80;99.90;;;;;;5042886;28;20194;-75
2024/01/20 00:56:28;;;;;;;14.07;10.85;;;0.70;99.90;;;;;;5052205;28;20307;-78
2024/01/20 00:58:56;;;;;;;16.90;10.32;;;0.60;99.90;;;;;;5040153;28;20205;-78
2024/01/20 01:01:26;;;;;;;16.17;12.05;;;0.70;99.90;;;;;;5048997;28;20691;-78
2024/01/20 01:03:54;;;;;;;14.77;10.25;;;0.30;99.90;;;;;;5053884;28;20205;-79
2024/01/20 01:06:22;;;;;;;15.93;10.95;;;0.30;99.90;;;;;;5047227;28;20743;-77
2024/01/20 01:08:50;;;;;;;20.13;11.05;;;0.30;99.90;;;;;;5040523;28;20198;-79
2024/01/20 01:11:19;;;;;;;14.35;10.35;;;0.20;99.90;;;;;;5039883;28;20240;-77
2024/01/20 01:13:47;;;;;;;15.98;10.65;;;0.40;99.90;;;;;;5052708;28;20204;-78
2024/01/20 01:16:15;;;;;;;14.60;11.57;;;0.40;99.90;;;;;;5053213;28;20222;-77
2024/01/20 01:18:45;;;;;;;14.43;10.82;;;0.40;99.90;;;;;;5051492;28;20300;-76
2024/01/20 01:21:13;;;;;;;19.85;10.90;;;0.60;99.90;;;;;;5045154;28;20282;-78
2024/01/20 01:23:42;;;;;;;17.27;11.07;;;0.80;99.90;;;;;;5052766;28;20196;-80
2024/01/20 01:26:10;;;;;;;13.88;10.10;;;0.50;99.90;;;;;;5046122;28;20244;-78
2024/01/20 01:28:39;;;;;;;14.05;10.65;;;0.50;99.90;;;;;;5048373;28;20494;-78
2024/01/20 01:31:08;;;;;;;14.25;11.02;;;0.30;99.90;;;;;;5045715;28;20190;-79
2024/01/20 01:33:37;;;;;;;11.38;10.02;;;0.50;99.90;;;;;;5050234;28;20654;-77
2024/01/20 01:36:07;;;;;;;14.20;11.52;;;0.30;99.90;;;;;;5051001;28;20202;-77
2024/01/20 01:38:35;;;;;;;17.23;12.20;;;0.10;99.90;;;;;;5052930;28;20201;-78
2024/01/20 01:41:04;;;;;;;12.75;10.55;;;0.00;99.90;;;;;;5051461;28;20328;-78
2024/01/20 01:43:32;;;;;;;12.57;10.48;;;0.10;99.90;;;;;;5047116;28;20201;-78
2024/01/20 01:46:00;;;;;;;13.40;10.20;;;0.30;99.90;;;;;;5046333;28;20695;-79
2024/01/20 01:48:29;;;;;;;16.23;11.15;;;0.50;99.90;;;;;;5048717;28;20609;-77
2024/01/20 01:50:58;;;;;;;13.00;11.40;;;0.60;99.90;;;;;;5050055;28;20207;-78
2024/01/20 01:53:28;;;;;;;16.35;11.50;;;0.50;99.90;;;;;;5053857;28;20197;-77
2024/01/20 01:55:57;;;;;;;17.10;10.70;;;0.40;99.90;;;;;;5053680;28;20193;-79
2024/01/20 01:58:26;;;;;;;12.88;10.20;;;0.10;99.90;;;;;;5047295;28;20213;-75
2024/01/20 02:00:55;;;;;;;13.75;10.55;;;0.40;99.90;;;;;;5043232;28;20288;-74
2024/01/20 02:03:23;;;;;;;15.70;11.40;;;0.30;99.90;;;;;;5049167;28;20197;-77
2024/01/20 02:05:52;;;;;;;13.52;10.15;;;0.40;99.90;;;;;;5051862;28;20236;-77
2024/01/20 02:08:23;;;;;;;13.93;9.90;;;0.40;99.90;;;;;;5048448;28;20290;-78
2024/01/20 02:10:53;;;;;;;11.75;9.75;;;0.10;99.90;;;;;;5046737;28;20206;-75
2024/01/20 02:13:22;;;;;;;12.63;9.00;;;0.30;99.90;;;;;;5049420;28;20770;-76
2024/01/20 02:15:50;;;;;;;15.82;10.65;;;0.20;99.90;;;;;;5041360;28;20201;-75
2024/01/20 02:18:21;;;;;;;16.65;10.55;;;0.30;99.90;;;;;;5049069;28;20217;-76
2024/01/20 02:20:50;;;;;;;13.52;10.38;;;0.30;99.90;;;;;;5050333;28;20207;-77
2024/01/20 02:23:20;;;;;;;13.48;9.65;;;0.40;99.90;;;;;;5043288;28;20210;-76
2024/01/20 02:25:48;;;;;;;16.52;10.73;;;0.30;99.90;;;;;;5050922;28;20251;-79
2024/01/20 02:28:16;;;;;;;22.60;10.23;;;0.10;99.90;;;;;;5032740;28;20305;-77
2024/01/20 02:30:46;;;;;;;14.23;10.20;;;0.00;99.90;;;;;;5047647;28;20209;-78
2024/01/20 02:33:15;;;;;;;16.48;11.05;;;0.30;99.90;;;;;;5049465;28;20233;-80
2024/01/20 02:35:43;;;;;;;15.77;10.88;;;0.20;99.90;;;;;;5052139;28;20211;-77
2024/01/20 02:38:11;;;;;;;14.00;10.45;;;0.30;99.90;;;;;;5052244;28;20213;-80
2024/01/20 02:40:41;;;;;;;11.98;9.35;;;0.30;99.90;;;;;;5054026;28;20204;-78
2024/01/20 02:43:09;;;;;;;14.63;10.18;;;0.10;99.90;;;;;;5050241;28;20292;-79
2024/01/20 02:45:37;;;;;;;12.88;9.95;;;0.20;99.90;;;;;;5045874;28;20288;-78
2024/01/20 02:48:06;;;;;;;12.80;9.50;;;0.20;99.90;;;;;;5048839;28;20666;-78
2024/01/20 02:50:35;;;;;;;13.63;9.45;;;0.20;99.90;;;;;;5054142;28;20208;-79
2024/01/20 02:53:04;;;;;;;13.75;9.25;;;0.00;99.90;;;;;;5052645;28;20198;-80
2024/01/20 02:55:32;;;;;;;12.30;9.15;;;0.20;99.90;;;;;;5054034;28;20205;-77
2024/01/20 02:58:02;;;;;;;13.18;9.63;;;0.20;99.90;;;;;;5051364;28;20352;-78
2024/01/20 03:00:30;;;;;;;11.20;9.35;;;0.20;99.90;;;;;;5046031;28;20740;-79
2024/01/20 03:02:58;;;;;;;16.60;10.48;;;0.10;99.90;;;;;;5053892;28;20244;-75
2024/01/20 03:05:27;;;;;;;14.70;10.43;;;-0.20;99.90;;;;;;5055428;28;20308;-76
2024/01/20 03:07:55;;;;;;;12.48;10.43;;;-0.30;99.90;;;;;;5060841;28;20228;-80
2024/01/20 03:10:23;;;;;;;15.32;10.63;;;-0.20;99.90;;;;;;5053734;28;20212;-77
2024/01/20 03:12:52;;;;;;;13.95;10.48;;;-0.10;99.90;;;;;;5053254;28;20730;-78
2024/01/20 03:15:21;;;;;;;15.75;10.10;;;-0.20;99.90;;;;;;5051848;28;20617;-80
2024/01/20 03:17:50;;;;;;;15.30;9.65;;;-0.10;99.90;;;;;;5047203;28;20763;-75
2024/01/20 03:20:18;;;;;;;13.48;9.68;;;-0.10;99.90;;;;;;5051162;28;20205;-80
2024/01/20 03:22:46;;;;;;;18.10;10.13;;;0.00;99.90;;;;;;5051730;28;20246;-76
2024/01/20 03:25:14;;;;;;;11.18;9.63;;;0.00;99.90;;;;;;5049844;28;20206;-77
2024/01/20 03:27:43;;;;;;;14.82;10.60;;;0.00;99.90;;;;;;5052018;28;20682;-78
2024/01/20 03:30:11;;;;;;;12.70;10.00;;;-0.10;99.90;;;;;;5050614;28;20200;-76
2024/01/20 03:32:41;;;;;;;14.05;11.52;;;-0.20;99.90;;;;;;5051486;28;20566;-77
2024/01/20 03:35:09;;;;;;;14.35;9.80;;;-0.30;99.90;;;;;;5049947;28;20208;-80
2024/01/20 03:37:37;;;;;;;15.15;11.68;;;-0.40;99.90;;;;;;5049864;28;20323;-78
2024/01/20 03:40:07;;;;;;;17.10;10.35;;;-0.20;99.90;;;;;;5049880;28;20208;-78
2024/01/20 03:42:35;;;;;;;13.68;10.38;;;-0.30;99.90;;;;;;5052955;28;20214;-78
2024/01/20 03:45:04;;;;;;;14.18;10.82;;;-0.20;99.90;;;;;;5072349;28;20205;-78
2024/01/20 03:47:32;;;;;;;12.82;10.13;;;0.00;99.90;;;;;;5043214;28;20228;-75
2024/01/20 03:50:03;;;;;;;16.38;10.80;;;-0.10;99.90;;;;;;5045252;28;20207;-79
2024/01/20 03:52:32;;;;;;;15.25;10.07;;;-0.40;99.90;;;;;;5052575;28;20288;-78
2024/01/20 03:54:59;;;;;;;13.07;9.60;;;-0.40;99.90;;;;;;5053362;28;20198;-76
2024/01/20 03:57:27;;;;;;;16.65;11.45;;;-0.30;99.90;;;;;;5052693;28;21195;-76
2024/01/20 03:59:55;;;;;;;16.08;11.10;;;-0.30;99.90;;;;;;5049114;28;20201;-78
2024/01/20 04:02:24;;;;;;;15.05;11.80;;;-0.10;99.90;;;;;;5041310;28;20195;-76
2024/01/20 04:04:52;;;;;;;14.23;11.20;;;-0.10;99.90;;;;;;5051054;28;20200;-80
2024/01/20 04:07:21;;;;;;;10.40;9.30;;;0.00;99.90;;;;;;5045773;28;20643;-79
2024/01/20 04:09:49;;;;;;;15.95;10.75;;;0.00;99.90;;;;;;5052267;28;20204;-78
2024/01/20 04:12:18;;;;;;;15.30;10.77;;;-0.10;99.90;;;;;;5052224;28;20212;-79
2024/01/20 04:14:46;;;;;;;15.20;11.02;;;-0.10;99.90;;;;;;5052330;28;20198;-78
2024/01/20 04:17:14;;;;;;;16.48;10.95;;;-0.30;99.90;;;;;;5045697;28;20304;-77
2024/01/20 04:19:42;;;;;;;15.60;10.45;;;-0.20;99.90;;;;;;5052949;28;20193;-78
2024/01/20 04:22:11;;;;;;;11.90;9.77;;;-0.30;99.90;;;;;;5050949;28;20208;-78
2024/01/20 04:24:40;;;;;;;15.23;10.98;;;-0.30;99.90;;;;;;5055430;28;20202;-78
2024/01/20 04:27:08;;;;;;;19.02;11.52;;;-0.10;99.90;;;;;;5046135;28;20253;-78
2024/01/20 04:29:36;;;;;;;15.00;11.70;;;-0.20;99.90;;;;;;5050559;28;20206;-76
2024/01/20 04:32:06;;;;;;;14.60;11.32;;;-0.20;99.90;;;;;;5043508;28;20202;-79
2024/01/20 04:34:34;;;;;;;16.42;11.88;;;-0.20;99.90;;;;;;5052520;28;20224;-76
2024/01/20 04:37:02;;;;;;;15.18;11.73;;;-0.10;99.90;;;;;;5055468;28;20295;-76
2024/01/20 04:39:30;;;;;;;17.50;10.75;;;-0.20;99.90;;;;;;5052000;28;20210;-74
2024/01/20 04:42:00;;;;;;;17.40;11.45;;;-0.30;99.90;;;;;;5052971;28;20192;-78
2024/01/20 04:44:28;;;;;;;14.90;11.60;;;-0.10;99.90;;;;;;5048562;28;20201;-76
2024/01/20 04:46:56;;;;;;;15.27;10.43;;;-0.10;99.90;;;;;;5050493;28;20221;-76
2024/01/20 04:49:24;;;;;;;17.33;11.93;;;0.00;99.90;;;;;;5047500;28;20204;-75
2024/01/20 04:51:53;;;;;;;14.20;11.10;;;0.00;99.90;;;;;;5053462;28;20250;-78
2024/01/20 04:54:21;;;;;;;15.82;11.00;;;-0.10;99.90;;;;;;5050599;28;20727;-77
2024/01/20 04:56:50;;;;;;;13.75;9.45;;;-0.10;99.90;;;;;;5050076;28;20313;-79
2024/01/20 04:59:19;;;;;;;16.88;10.90;;;-0.10;99.90;;;;;;5040644;28;20201;-76
2024/01/20 05:01:48;;;;;;;14.15;11.48;;;0.00;99.90;;;;;;5044628;28;20198;-81
2024/01/20 05:04:17;;;;;;;16.17;11.88;;;-0.10;99.90;;;;;;5049604;28;20748;-79
2024/01/20 05:06:45;;;;;;;14.25;11.05;;;-0.20;99.90;;;;;;5052679;28;20280;-79
2024/01/20 05:09:14;;;;;;;13.45;10.90;;;-0.20;99.90;;;;;;5046912;28;20331;-79
2024/01/20 05:11:42;;;;;;;13.07;9.77;;;0.00;99.90;;;;;;5045713;28;20277;-80
2024/01/20 05:14:11;;;;;;;16.05;11.77;;;-0.20;99.90;;;;;;5045248;28;20209;-78
2024/01/20 05:16:40;;;;;;;16.60;11.65;;;-0.20;99.90;;;;;;5048369;28;20304;-77
2024/01/20 05:19:09;;;;;;;16.30;11.68;;;-0.40;99.90;;;;;;5050233;28;20213;-80
2024/01/20 05:21:38;;;;;;;15.20;11.82;;;-0.30;99.90;;;;;;5052027;28;20623;-77
2024/01/20 05:24:06;;;;;;;15.13;10.82;;;-0.40;99.90;;;;;;5045713;28;20206;-78
2024/01/20 05:26:35;;;;;;;15.63;11.43;;;-0.20;99.90;;;;;;5048369;28;20252;-77
2024/01/20 05:29:03;;;;;;;15.15;11.82;;;-0.20;99.90;;;;;;5049309;28;20775;-77
2024/01/20 05:31:32;;;;;;;16.90;11.30;;;-0.40;99.90;;;;;;5040521;28;20206;-79
2024/01/20 05:34:01;;;;;;;14.40;11.35;;;-0.60;99.90;;;;;;5047176;28;20217;-80
2024/01/20 05:36:30;;;;;;;14.48;10.50;;;-0.40;99.90;;;;;;5040633;28;21793;-79
2024/01/20 05:38:58;;;;;;;14.95;10.95;;;-0.40;99.90;;;;;;5046652;28;20205;-78
2024/01/20 05:41:26;;;;;;;18.48;12.40;;;-0.60;99.90;;;;;;5045800;28;20219;-78
2024/01/20 05:43:55;;;;;;;18.98;12.38;;;-0.60;99.90;;;;;;5049783;28;20621;-76
2024/01/20 05:46:23;;;;;;;16.70;12.57;;;-0.40;99.90;;;;;;5046714;28;20194;-78
2024/01/20 05:48:51;;;;;;;16.85;11.15;;;-0.50;99.90;;;;;;5051942;28;20733;-80
2024/01/20 05:51:21;;;;;;;16.65;12.20;;;-0.30;99.90;;;;;;5044966;28;20200;-79
2024/01/20 05:53:49;;;;;;;17.25;10.93;;;-0.60;99.90;;;;;;5048194;28;20274;-75
2024/01/20 05:56:20;;;;;;;15.25;11.85;;;-0.60;99.90;;;;;;5050381;28;20667;-76
2024/01/20 05:58:48;;;;;;;18.00;10.75;;;-0.30;99.90;;;;;;5050181;28;20196;-78
2024/01/20 06:01:17;;;;;;;17.15;11.30;;;-0.60;99.90;;;;;;5043757;28;20208;-80
2024/01/20 06:03:45;;;;;;;18.20;12.18;;;-0.80;99.90;;;;;;5048016;28;20198;-77
2024/01/20 06:06:14;;;;;;;18.05;13.13;;;-0.80;99.90;;;;;;5049821;28;20280;-77
2024/01/20 06:08:43;;;;;;;14.68;11.30;;;-0.70;99.90;;;;;;5047974;28;20218;-76
2024/01/20 06:11:12;;;;;;;17.08;12.20;;;-0.80;99.90;;;;;;5050287;28;20220;-77
2024/01/20 06:13:40;;;;;;;18.98;13.40;;;-0.90;99.90;;;;;;5048374;28;20320;-78
2024/01/20 06:16:12;;;;;;;17.48;12.10;;;-0.70;99.90;;;;;;5043640;28;20207;-81
2024/01/20 06:18:40;;;;;;;17.42;11.80;;;-0.60;99.90;;;;;;5046241;28;20777;-77
2024/01/20 06:21:08;;;;;;;17.05;11.98;;;-0.60;99.90;;;;;;5050937;28;20201;-76
2024/01/20 06:23:37;;;;;;;19.25;11.60;;;-0.60;99.90;;;;;;5054041;28;20616;-76
2024/01/20 06:26:07;;;;;;;17.27;11.70;;;-0.60;99.90;;;;;;5047801;28;20205;-77
2024/01/20 06:28:35;;;;;;;17.33;12.27;;;-0.50;99.90;;;;;;5046443;28;20252;-77
2024/01/20 06:31:03;;;;;;;15.38;11.50;;;-0.50;99.90;;;;;;5044282;28;20690;-75
2024/01/20 06:33:31;;;;;;;18.27;12.98;;;-0.50;99.90;;;;;;5050119;28;20219;-77
2024/01/20 06:36:00;;;;;;;16.75;11.80;;;-0.40;99.90;;;;;;5047828;28;21785;-78
2024/01/20 06:38:29;;;;;;;17.92;13.27;;;-0.30;99.90;;;;;;5050296;28;20222;-77
2024/01/20 06:40:57;;;;;;;14.20;10.85;;;-0.30;99.90;;;;;;5052455;28;20209;-76
2024/01/20 06:43:26;;;;;;;13.88;10.90;;;-0.40;99.90;;;;;;5049302;28;20281;-77
2024/01/20 06:45:55;;;;;;;14.85;12.52;;;-0.40;99.90;;;;;;5042374;28;20233;-77
2024/01/20 06:48:24;;;;;;;18.88;14.73;;;-0.50;99.90;;;;;;5038712;28;20442;-79
2024/01/20 06:50:52;;;;;;;20.10;12.95;;;-0.50;99.90;;;;;;5045688;28;20204;-77
2024/01/20 06:53:20;;;;;;;17.85;13.10;;;-0.60;99.90;;;;;;5051213;28;20208;-78
2024/01/20 06:55:49;;;;;;;19.92;13.25;;;-0.60;99.90;;;;;;5050017;28;20570;-79
2024/01/20 06:58:18;;;;;;;20.85;15.85;;;-0.80;99.90;;;;;;5050645;28;20248;-77
2024/01/20 07:00:47;;;;;;;16.80;11.18;;;-0.90;99.90;;;;;;5048423;28;20205;-76
2024/01/20 07:03:16;;;;;;;16.77;12.43;;;-0.70;99.90;;;;;;5054390;28;20204;-76
2024/01/20 07:05:44;;;;;;;23.02;15.15;;;-0.70;99.90;;;;;;5051078;28;20219;-75
2024/01/20 07:08:12;;;;;;;20.13;12.63;;;-0.60;99.90;;;;;;5051764;28;20225;-77
2024/01/20 07:10:40;;;;;;;18.67;13.48;;;-0.80;99.90;;;;;;5043692;28;20212;-78
2024/01/20 07:13:08;;;;;;;17.00;12.30;;;-0.80;99.90;;;;;;5051127;28;20202;-77
2024/01/20 07:15:37;;;;;;;22.95;13.57;;;-0.60;99.90;;;;;;5051349;28;20209;-77
2024/01/20 07:18:07;;;;;;;18.20;12.75;;;-0.50;99.90;;;;;;5046482;28;20319;-75
2024/01/20 07:20:35;;;;;;;19.85;13.30;;;-0.60;99.90;;;;;;5047941;28;20225;-76
2024/01/20 07:23:04;;;;;;;26.95;15.38;;;-0.50;99.90;;;;;;5046208;28;20292;-78
2024/01/20 07:25:36;;;;;;;17.63;12.75;;;-0.60;99.90;;;;;;5043430;28;20695;-75
2024/01/20 07:28:04;;;;;;;18.10;13.07;;;-0.70;99.90;;;;;;5052466;28;20270;-74
2024/01/20 07:30:33;;;;;;;16.33;12.43;;;-0.70;99.90;;;;;;5049641;28;20236;-78
2024/01/20 07:33:01;;;;;;;21.23;15.90;;;-0.70;99.90;;;;;;5038315;28;20447;-79
2024/01/20 07:35:30;;;;;;;19.65;14.10;;;-0.60;99.90;;;;;;5041583;28;20482;-74
2024/01/20 07:37:59;;;;;;;15.95;13.23;;;-0.60;99.90;;;;;;5045242;28;20764;-74
2024/01/20 07:40:27;;;;;;;21.35;16.35;;;-0.60;99.90;;;;;;5039942;28;20436;-77
2024/01/20 07:42:55;;;;;;;21.77;14.50;;;-0.60;99.90;;;;;;5055237;28;20675;-81
2024/01/20 07:45:26;;;;;;;16.17;12.13;;;-0.50;99.90;;;;;;5048915;28;20223;-75
2024/01/20 07:47:55;;;;;;;16.23;11.68;;;-0.70;99.90;;;;;;5051692;28;20256;-76
2024/01/20 07:50:23;;;;;;;17.05;12.52;;;-0.80;99.90;;;;;;5053161;28;20210;-79
2024/01/20 07:52:53;;;;;;;17.67;12.38;;;-0.80;99.90;;;;;;5050408;28;20214;-77
2024/01/20 07:55:21;;;;;;;17.80;12.70;;;-0.70;99.90;;;;;;5052309;28;20243;-77
2024/01/20 07:57:49;;;;;;;16.83;11.60;;;-0.70;99.90;;;;;;5053152;28;20217;-76
2024/01/20 08:00:18;;;;;;;15.88;12.48;;;-0.70;99.90;;;;;;5052019;28;20207;-76
2024/01/20 08:02:46;;;;;;;19.45;12.98;;;-0.60;99.90;;;;;;5047831;28;20233;-76
2024/01/20 08:05:14;;;;;;;18.25;12.70;;;-0.50;99.90;;;;;;5054021;28;20186;-77
2024/01/20 08:07:43;;;;;;;16.95;12.10;;;-0.60;99.90;;;;;;5048428;28;20885;-77
2024/01/20 08:10:13;;;;;;;19.20;12.40;;;-0.70;99.90;;;;;;5051538;28;20241;-78
2024/01/20 08:12:42;;;;;;;19.70;13.55;;;-0.70;99.90;;;;;;5056696;28;20310;-80
2024/01/20 08:15:10;;;;;;;22.40;14.32;;;-0.80;99.90;;;;;;5050526;28;20205;-77
2024/01/20 08:17:39;;;;;;;17.65;13.20;;;-0.80;99.90;;;;;;5042862;28;20217;-77
2024/01/20 08:20:12;;;;;;;17.75;12.27;;;-1.00;99.90;;;;;;5047403;28;20729;-79
2024/01/20 08:22:40;;;;;;;16.15;12.38;;;-1.00;99.90;;;;;;5048606;28;20581;-74
2024/01/20 08:25:09;;;;;;;19.75;13.05;;;-0.90;99.90;;;;;;5051813;28;20205;-75
2024/01/20 08:27:39;;;;;;;19.60;13.52;;;-0.90;99.90;;;;;;5056880;28;20221;-76
2024/01/20 08:30:08;;;;;;;20.50;14.02;;;-0.90;99.90;;;;;;5039797;28;20538;-78
2024/01/20 08:32:37;;;;;;;21.95;14.05;;;-0.90;99.90;;;;;;5051668;28;20211;-77
2024/01/20 08:35:06;;;;;;;22.67;13.95;;;-0.90;99.90;;;;;;5055575;28;20309;-77
2024/01/20 08:37:34;;;;;;;18.60;13.00;;;-0.60;99.90;;;;;;5053328;28;20221;-80
2024/01/20 08:40:03;;;;;;;22.77;17.13;;;-0.70;99.90;;;;;;5059091;28;20446;-75
2024/01/20 08:42:31;;;;;;;22.80;16.45;;;-1.00;99.90;;;;;;5034467;28;20448;-76
2024/01/20 08:45:02;;;;;;;20.42;13.15;;;-0.90;99.90;;;;;;5046341;28;20304;-80
2024/01/20 08:47:30;;;;;;;23.33;14.55;;;-0.70;99.90;;;;;;5042287;28;20234;-77
2024/01/20 08:49:58;;;;;;;24.48;13.75;;;-0.50;99.90;;;;;;5045532;28;20230;-76
2024/01/20 08:52:26;;;;;;;27.67;14.95;;;-0.60;99.90;;;;;;5057224;28;20210;-76
2024/01/20 08:54:55;;;;;;;21.05;14.60;;;-0.70;99.90;;;;;;5059273;28;20578;-75
2024/01/20 08:57:24;;;;;;;21.73;14.20;;;-0.60;99.90;;;;;;5052248;28;20267;-78
2024/01/20 08:59:52;;;;;;;21.33;14.55;;;-0.60;99.90;;;;;;5056367;28;20709;-76
2024/01/20 09:02:22;;;;;;;22.23;15.48;;;-0.60;99.90;;;;;;5046680;28;20231;-79
2024/01/20 09:04:50;;;;;;;19.95;13.48;;;-0.50;99.90;;;;;;5050821;28;20297;-77
2024/01/20 09:07:18;;;;;;;21.17;13.90;;;-0.70;99.90;;;;;;5051350;28;20235;-74
2024/01/20 09:09:46;;;;;;;19.98;14.20;;;-0.50;99.90;;;;;;5058550;28;20225;-76
2024/01/20 09:12:15;;;;;;;24.23;15.77;;;-0.30;99.90;;;;;;5055140;28;20209;-75
2024/01/20 09:14:43;;;;;;;20.00;14.02;;;-0.20;99.90;;;;;;5052412;28;20247;-73
2024/01/20 09:17:11;;;;;;;21.73;15.40;;;-0.20;99.90;;;;;;5050833;28;20224;-77
2024/01/20 09:19:41;;;;;;;20.15;13.65;;;-0.20;99.90;;;;;;5054053;28;20189;-76
2024/01/20 09:22:09;;;;;;;26.95;16.35;;;-0.20;99.90;;;;;;5050153;28;20234;-75
2024/01/20 09:24:37;;;;;;;23.98;15.88;;;-0.20;99.90;;;;;;5051191;28;20216;-78
2024/01/20 09:27:06;;;;;;;24.75;15.57;;;-0.50;99.90;;;;;;5052704;28;20232;-77
2024/01/20 09:29:34;;;;;;;23.20;16.25;;;-0.40;99.90;;;;;;5053693;28;20593;-77
2024/01/20 09:32:03;;;;;;;22.50;15.07;;;-0.60;99.90;;;;;;5052182;28;20272;-77
2024/01/20 09:34:32;;;;;;;21.25;15.10;;;-0.50;99.90;;;;;;5051906;28;20197;-76
2024/01/20 09:37:02;;;;;;;21.95;14.75;;;-0.60;99.90;;;;;;5050779;28;20774;-75
2024/01/20 09:39:30;;;;;;;25.58;18.35;;;-0.20;99.90;;;;;;5049844;28;20439;-76
2024/01/20 09:41:59;;;;;;;26.38;17.00;;;-0.10;99.90;;;;;;5056003;28;20232;-75
2024/01/20 09:44:28;;;;;;;25.52;15.18;;;0.20;99.90;;;;;;5058784;28;20592;-77
2024/01/20 09:46:57;;;;;;;21.20;16.23;;;0.20;99.90;;;;;;5052313;28;20351;-82
2024/01/20 09:49:25;;;;;;;21.10;15.55;;;0.50;99.90;;;;;;5055558;28;20229;-82
2024/01/20 09:52:05;;;;;;;25.25;17.05;;;0.90;99.90;;;;;;5047214;28;20621;-78
2024/01/20 09:54:36;;;;;;;24.13;17.05;;;1.00;99.90;;;;;;5052294;28;20205;-78
2024/01/20 09:57:04;;;;;;;20.05;15.02;;;1.00;99.90;;;;;;5053231;28;20244;-80
2024/01/20 09:59:33;;;;;;;21.25;14.75;;;1.00;99.90;;;;;;5055649;28;20262;-78
2024/01/20 10:02:02;;;;;;;19.63;14.18;;;1.10;99.90;;;;;;5053276;28;20292;-79
2024/01/20 10:04:30;;;;;;;24.95;14.27;;;1.30;99.90;;;;;;5042788;28;20216;-81
2024/01/20 10:06:58;;;;;;;21.55;15.68;;;1.60;99.90;;;;;;5045232;28;20221;-79
2024/01/20 10:09:28;;;;;;;23.20;16.83;;;2.20;99.90;;;;;;5051549;28;20193;-76
2024/01/20 10:11:56;;;;;;;22.77;14.70;;;3.10;99.90;;;;;;5041774;28;20319;-79
2024/01/20 10:14:24;;;;;;;21.17;16.20;;;3.90;99.90;;;;;;5047602;28;20455;-78
2024/01/20 10:16:53;;;;;;;17.80;13.35;;;4.50;99.90;;;;;;5053026;28;20220;-77
2024/01/20 10:19:21;;;;;;;17.83;14.48;;;5.10;99.90;;;;;;5052084;28;20193;-75
2024/01/20 10:21:50;;;;;;;19.27;15.90;;;5.70;99.90;;;;;;5049207;28;20451;-77
2024/01/20 10:24:23;;;;;;;17.40;12.90;;;6.20;99.90;;;;;;5053057;28;20460;-75
2024/01/20 10:26:53;;;;;;;17.47;13.80;;;6.90;99.90;;;;;;5051890;28;20476;-77
2024/01/20 10:29:21;;;;;;;17.70;15.63;;;7.50;99.90;;;;;;5048927;28;20471;-76
2024/01/20 10:31:50;;;;;;;14.70;12.40;;;8.20;99.90;;;;;;5051297;28;20286;-78
2024/01/20 10:34:19;;;;;;;14.20;11.77;;;9.00;99.20;;;;;;5051081;28;20455;-77
2024/01/20 10:36:51;;;;;;;15.77;11.93;;;9.80;96.50;;;;;;5047291;28;20475;-77
2024/01/20 10:39:22;;;;;;;13.70;12.20;;;10.70;96.20;;;;;;5057500;28;20440;-76
2024/01/20 10:41:55;;;;;;;14.10;11.60;;;11.60;96.50;;;;;;5053691;28;20447;-77
2024/01/20 10:44:28;;;;;;;15.43;12.63;;;12.20;95.60;;;;;;5054684;28;20440;-79
2024/01/20 10:47:03;;;;;;;14.57;12.63;;;12.80;91.80;;;;;;5046956;28;20483;-77
2024/01/20 10:49:33;;;;;;;15.63;13.57;;;13.00;89.20;;;;;;5052000;28;20458;-78
2024/01/20 10:52:02;;;;;;;15.63;13.80;;;13.30;88.10;;;;;;5053727;28;20499;-77
2024/01/20 10:54:31;;;;;;;18.13;14.60;;;13.50;87.00;;;;;;5048658;28;20460;-76
2024/01/20 10:57:00;;;;;;;17.50;14.93;;;14.20;92.00;;;;;;5042588;28;20469;-77
2024/01/20 10:59:30;;;;;;;14.90;12.50;;;14.40;91.90;;;;;;5050493;28;20970;-79
2024/01/20 11:01:59;;;;;;;17.87;14.63;;;13.60;80.60;;;;;;5044779;28;20451;-76
2024/01/20 11:04:33;;;;;;;15.70;13.07;;;13.10;72.80;;;;;;5043203;28;20791;-75
2024/01/20 11:07:02;;;;;;;14.77;13.10;;;12.60;63.30;;;;;;5052802;28;21129;-77
2024/01/20 11:09:30;;;;;;;17.95;14.55;;;10.80;45.90;;;;;;5049403;28;20437;-76
2024/01/20 11:12:01;;;;;;;16.60;13.27;;;9.50;30.70;;;;;;5053425;28;20228;-74
2024/01/20 11:14:29;;;;;;;17.37;12.80;;;8.70;26.10;;;;;;5056458;28;20469;-79
2024/01/20 11:17:01;;;;;;;14.07;11.37;;;8.40;25.20;;;;;;5048947;28;20566;-77
2024/01/20 11:19:31;;;;;;;16.40;12.83;;;8.20;23.40;;;;;;5052221;28;20460;-76
2024/01/20 11:21:59;;;;;;;15.93;12.70;;;8.20;25.60;;;;;;5053878;28;21016;-76
2024/01/20 11:24:38;;;;;;;15.83;12.50;;;8.20;26.00;;;;;;5043406;28;20460;-76
2024/01/20 11:27:08;;;;;;;16.40;12.07;;;8.10;25.70;;;;;;5043422;28;20494;-76
2024/01/20 11:29:36;;;;;;;14.45;12.20;;;8.10;26.10;;;;;;5033362;28;20451;-77
2024/01/20 11:32:06;;;;;;;12.43;11.13;;;8.10;26.40;;;;;;5051009;28;20210;-76
2024/01/20 11:34:34;;;;;;;12.70;11.40;;;8.70;30.70;;;;;;5049093;28;20483;-77
2024/01/20 11:37:03;;;;;;;16.73;12.40;;;9.70;39.70;;;;;;5049363;28;20476;-74
2024/01/20 11:39:31;;;;;;;20.73;11.73;;;9.80;38.90;;;;;;5048688;28;20634;-77
2024/01/20 11:42:00;;;;;;;14.20;10.70;;;8.60;28.10;;;;;;5036335;28;21022;-77
2024/01/20 11:44:31;;;;;;;15.57;13.70;;;7.80;20.20;;;;;;5047271;28;20462;-74
2024/01/20 11:46:59;;;;;;;12.73;10.83;;;7.10;14.90;;;;;;5037727;28;20316;-76
2024/01/20 11:49:27;;;;;;;15.30;11.20;;;6.70;12.50;;;;;;5042707;28;20466;-77
2024/01/20 11:51:56;;;;;;;14.43;11.60;;;6.20;9.00;;;;;;5041501;28;20571;-76
2024/01/20 11:54:24;;;;;;;13.02;10.35;;;6.10;21.80;;;;;;5044055;28;20470;-75
2024/01/20 11:56:58;;;;;;;11.80;10.60;;;5.90;9.70;;;;;;5045189;28;20224;-76
2024/01/20 11:59:26;;;;;;;12.43;10.03;;;6.20;13.90;;;;;;5042714;28;20456;-76
2024/01/20 12:01:56;;;;;;;11.77;9.80;;;6.00;12.80;;;;;;5050980;28;20555;-76
2024/01/20 12:04:24;;;;;;;10.30;8.40;;;6.10;14.80;;;;;;5050332;28;20211;-77
2024/01/20 12:06:53;;;;;;;12.30;8.93;;;5.80;9.40;;;;;;5033159;28;20522;-76
2024/01/20 12:09:21;;;;;;;9.98;8.95;;;5.60;9.00;;;;;;5043258;28;20611;-80
2024/01/20 12:11:49;;;;;;;11.25;9.10;;;5.70;12.90;;;;;;5045852;28;21819;-78
2024/01/20 12:14:17;;;;;;;12.77;9.43;;;5.70;23.10;;;;;;5047203;28;20208;-78
2024/01/20 12:16:47;;;;;;;13.50;9.47;;;5.90;25.60;;;;;;5034475;28;20484;-78
2024/01/20 12:19:17;;;;;;;12.53;11.27;;;5.50;10.70;;;;;;5050554;28;20475;-77
2024/01/20 12:21:46;;;;;;;12.90;10.40;;;5.50;12.80;;;;;;5041070;28;20594;-74
2024/01/20 12:24:15;;;;;;;12.93;8.68;;;5.50;10.60;;;;;;5053818;28;20491;-76
2024/01/20 12:26:43;;;;;;;13.47;9.43;;;5.10;8.50;;;;;;5042891;28;20253;-74
2024/01/20 12:29:11;;;;;;;13.25;9.30;;;4.80;5.80;;;;;;5043525;28;20518;-75
2024/01/20 12:31:39;;;;;;;13.25;10.25;;;5.00;8.80;;;;;;5047360;28;20215;-73
2024/01/20 12:34:08;;;;;;;11.57;9.43;;;5.30;12.90;;;;;;5048011;28;20225;-78
2024/01/20 12:36:38;;;;;;;10.68;9.20;;;5.40;12.70;;;;;;5053834;28;20228;-76
2024/01/20 12:39:07;;;;;;;10.45;9.40;;;5.30;12.00;;;;;;5050412;28;20204;-74
2024/01/20 12:41:36;;;;;;;13.02;9.82;;;5.10;10.10;;;;;;5044117;28;20189;-75